Date,TemperatureHighF,TemperatureAvgF,TemperatureLowF,DewpointHighF,DewpointAvgF,DewpointLowF,HumidityHigh,HumidityAvg,HumidityLow,PressureMaxIn,PressureMinIn,WindSpeedMaxMPH,WindSpeedAvgMPH,GustSpeedMaxMPH,PrecipitationSumIn
2013-1-1,48.3,44.4,40.5,46.4,40.0,30.0,94,85,60,30.12,29.95,2,0,4,0.24
2013-1-2,47.3,43.3,38.6,45.7,40.0,35.9,94,88,74,30.21,29.93,3,0,3,0.25
2013-1-3,42.6,37.8,26.7,38.0,34.6,23.9,92,88,82,30.29,30.16,1,0,2,0.00
2013-1-4,48.8,34.6,22.0,30.7,24.5,19.5,93,70,42,30.35,30.22,3,1,4,0.00
2013-1-5,49.3,35.2,23.8,31.2,25.1,19.1,84,68,43,30.42,30.28,1,0,3,0.00
2013-1-6,50.4,40.4,33.0,39.8,34.9,29.4,90,81,66,30.27,30.08,1,0,2,0.01
2013-1-7,51.3,36.2,26.1,35.9,28.9,23.2,92,76,52,30.46,30.21,2,0,4,0.00
2013-1-8,53.6,38.5,24.9,41.3,32.8,21.8,90,81,60,30.50,30.39,1,0,3,0.00
2013-1-9,66.2,49.5,31.6,53.7,43.6,29.0,93,81,63,30.47,30.37,2,0,4,0.00
2013-1-10,64.3,50.6,42.0,47.2,43.1,38.2,94,77,50,30.55,30.44,1,0,3,0.00
2013-1-11,47.8,44.9,40.2,45.3,41.2,36.7,94,87,67,30.45,30.17,1,0,2,0.15
2013-1-12,70.9,56.3,46.3,64.8,53.6,44.7,99,91,79,30.19,30.10,2,0,3,0.00
2013-1-13,73.1,59.9,48.0,63.4,55.2,46.4,96,85,69,30.15,30.06,4,1,4,0.01
2013-1-14,64.9,61.3,57.8,62.4,58.5,54.8,96,90,84,30.15,30.08,1,0,3,0.13
2013-1-15,59.4,44.4,42.4,57.7,42.8,41.1,95,94,92,30.25,30.08,2,0,3,0.08
2013-1-16,48.3,44.0,40.3,47.2,42.8,39.0,96,95,95,30.11,29.99,1,0,2,0.09
2013-1-17,49.3,44.7,31.7,48.2,43.4,30.2,96,95,92,30.17,29.90,3,0,5,1.19
2013-1-18,41.5,33.4,25.9,33.9,29.4,23.1,95,86,65,30.56,30.17,2,0,5,0.37
2013-1-19,51.7,34.2,21.7,36.3,27.4,19.5,98,78,47,30.53,30.18,2,0,4,0.03
2013-1-20,61.4,42.5,29.3,41.0,32.3,26.3,92,70,41,30.18,30.00,4,1,5,0.01
2013-1-21,57.8,41.0,25.7,35.8,27.6,18.5,92,63,37,30.11,29.89,4,1,6,0.00
2013-1-22,36.9,30.5,20.2,20.3,9.6,3.9,66,43,26,30.31,29.99,5,1,13,0.00
2013-1-23,39.4,25.5,13.9,18.0,12.7,8.3,79,60,39,30.41,30.07,3,0,7,0.00
2013-1-24,36.2,28.7,21.6,24.4,13.2,4.1,81,54,34,30.54,30.00,5,1,11,0.00
2013-1-25,25.8,22.8,17.9,22.6,13.8,4.4,88,69,48,30.56,30.14,1,0,2,0.01
2013-1-26,37.5,29.2,24.3,31.9,26.0,21.5,91,88,77,30.44,30.12,1,0,2,0.16
2013-1-27,38.8,29.1,18.6,29.7,23.8,15.9,92,81,64,30.64,30.43,2,0,3,0.03
2013-1-28,49.4,41.0,30.3,45.6,35.2,25.8,92,80,67,30.54,30.25,2,1,4,0.01
2013-1-29,71.7,56.6,43.7,59.2,50.6,41.2,93,82,60,30.26,30.06,4,1,6,0.00
2013-1-30,71.8,66.1,60.4,64.1,61.0,56.2,90,84,74,30.06,29.51,4,2,7,0.01
2013-1-31,47.5,41.5,28.7,34.1,25.2,20.6,72,53,39,30.02,29.67,6,2,13,0.13
2013-2-1,39.0,32.5,22.7,28.2,14.8,5.6,73,49,32,30.41,29.89,6,2,14,0.00
2013-2-2,43.3,31.1,15.9,31.1,14.9,7.8,75,52,35,30.43,30.05,4,1,6,0.00
2013-2-3,47.7,39.1,31.5,33.0,28.7,23.2,89,67,49,30.05,29.87,3,1,5,0.00
2013-2-4,47.9,36.2,24.0,26.5,23.1,18.4,82,61,42,30.17,30.01,2,0,5,0.00
2013-2-5,59.4,42.5,32.8,37.5,31.5,24.1,83,67,43,30.03,29.90,2,0,6,0.00
2013-2-6,60.1,41.0,27.1,38.7,28.5,23.7,91,66,31,30.31,29.99,3,1,9,0.00
2013-2-7,45.1,38.6,29.8,39.2,33.4,23.4,92,82,70,30.36,30.03,1,0,4,0.45
2013-2-8,55.8,44.3,36.9,46.7,38.4,28.0,92,81,60,30.08,29.83,4,2,9,0.37
2013-2-9,50.8,36.7,25.5,27.9,23.8,20.4,88,63,33,30.39,30.07,4,1,6,0.00
2013-2-10,52.0,36.4,21.9,36.4,25.0,17.8,87,66,38,30.52,30.23,2,0,4,0.06
2013-2-11,60.8,54.6,41.0,58.2,51.9,36.8,94,91,85,30.23,29.92,4,1,6,0.06
2013-2-12,57.9,50.2,43.9,51.5,37.8,31.5,92,65,38,30.10,29.92,3,1,5,0.00
2013-2-13,45.7,43.8,38.3,44.1,41.1,35.3,94,90,77,29.96,29.64,1,0,4,0.30
2013-2-14,37.8,34.1,31.2,34.8,31.7,28.9,92,91,89,29.91,29.86,0,0,0,0.00
2013-2-15,60.6,46.6,25.9,42.3,33.5,23.2,93,64,36,30.12,29.95,3,1,6,0.01
2013-2-16,44.2,34.6,28.1,33.9,30.1,24.5,92,84,67,29.99,29.85,2,0,4,0.35
2013-2-17,36.2,27.5,20.4,24.3,16.2,11.5,87,65,38,30.31,29.95,5,1,8,0.02
2013-2-18,51.3,32.5,14.8,26.5,19.5,10.6,92,62,36,30.44,30.28,3,0,3,0.01
2013-2-19,47.9,38.7,27.3,45.7,34.3,21.9,92,84,60,30.27,29.88,4,1,5,0.22
2013-2-20,51.7,35.7,23.8,31.2,24.6,20.8,93,68,30,30.17,29.99,4,1,6,0.01
2013-2-21,53.3,37.5,21.7,26.5,22.5,17.1,84,58,30,30.27,30.14,3,1,4,0.00
2013-2-22,41.8,34.8,31.6,32.7,30.1,23.9,92,83,50,30.37,30.17,1,0,2,0.38
2013-2-23,41.7,38.4,34.7,40.1,36.6,32.6,94,93,92,30.15,29.84,2,0,3,0.54
2013-2-24,61.3,46.3,31.9,45.4,38.2,27.6,95,76,37,30.06,29.82,3,1,11,0.04
2013-2-25,40.7,34.9,29.6,28.6,24.8,22.7,87,67,53,30.25,30.06,1,0,3,0.00
2013-2-26,55.7,42.8,33.5,54.3,38.6,25.1,95,85,66,30.17,29.58,3,1,5,0.80
2013-2-27,58.2,46.8,38.1,42.3,39.4,33.5,94,77,52,29.80,29.64,4,1,7,0.00
2013-2-28,48.2,38.7,29.9,36.4,29.9,23.4,92,72,48,29.88,29.71,4,1,6,0.00
2013-3-1,46.9,36.2,24.4,32.7,26.8,21.0,90,70,53,29.94,29.86,3,1,4,0.00
2013-3-2,47.1,34.8,24.1,29.9,25.1,20.2,88,69,49,29.94,29.83,3,1,6,0.00
2013-3-3,44.4,35.9,26.2,23.8,20.2,16.0,75,53,43,30.01,29.87,4,2,6,0.00
2013-3-4,50.3,33.0,18.8,21.7,17.8,13.0,81,56,30,30.15,30.00,4,1,7,0.00
2013-3-5,44.9,39.2,30.5,41.6,34.0,21.9,93,82,62,30.10,29.58,1,0,4,0.24
2013-3-6,47.0,40.7,34.5,41.8,32.0,26.4,94,72,55,30.06,29.54,7,2,12,0.04
2013-3-7,50.6,39.8,30.2,32.6,28.5,23.9,82,65,49,30.26,30.06,4,1,11,0.00
2013-3-8,54.6,41.5,28.3,29.4,25.8,22.1,78,56,35,30.31,30.18,5,1,12,0.00
2013-3-9,62.9,43.8,27.1,34.5,28.5,21.7,83,58,32,30.37,30.25,3,0,5,0.00
2013-3-10,67.5,46.2,27.5,38.2,30.0,23.9,92,59,27,30.34,30.22,2,0,5,0.00
2013-3-11,67.6,52.3,33.3,52.9,41.8,26.3,81,68,54,30.26,29.94,3,1,4,0.00
2013-3-12,67.6,59.5,48.2,60.9,51.5,31.9,94,77,47,29.96,29.77,3,2,8,0.55
2013-3-13,55.6,37.9,30.2,32.9,7.5,-99.9,85,45,34,30.15,29.96,4,-163,10,0.00
2013-3-14,52.9,27.9,27.7,24.6,-20.6,-99.9,68,29,31,30.26,30.13,4,-346,10,0.00
2013-3-15,62.5,48.9,27.9,36.9,30.8,19.8,76,51,37,30.20,29.92,5,2,9,0.00
2013-3-16,77.8,59.9,43.3,52.3,44.5,33.8,80,59,38,29.92,29.66,5,2,10,0.00
2013-3-17,57.0,51.1,46.9,49.8,45.8,40.6,92,82,70,30.06,29.83,2,0,4,0.00
2013-3-18,40.5,38.7,36.7,38.4,36.7,34.6,94,92,91,30.22,29.85,2,0,3,0.40
2013-3-19,66.0,49.6,38.6,46.9,35.2,17.1,95,65,25,30.04,29.84,4,1,5,0.00
2013-3-20,47.9,45.5,40.3,16.8,15.7,14.7,37,30,28,30.05,30.03,2,1,3,0.00
2013-3-21,30.8,30.4,30.0,11.7,11.4,11.1,45,45,44,30.00,29.98,2,2,2,0.00
2013-3-22,51.8,35.5,20.4,21.3,16.0,10.7,69,47,28,30.11,29.99,4,1,9,0.00
2013-3-23,56.4,41.7,29.4,33.6,27.9,19.7,79,60,40,30.08,29.92,3,0,4,0.00
2013-3-24,39.3,36.2,30.3,36.3,32.8,25.2,92,88,78,29.96,29.58,2,0,6,0.73
2013-3-25,46.6,39.3,34.1,36.9,30.2,22.9,93,72,47,29.83,29.58,6,1,9,0.01
2013-3-26,46.9,39.6,28.1,30.5,26.4,21.7,80,60,48,30.14,29.83,3,1,6,0.00
2013-3-27,50.4,39.1,28.2,28.0,24.3,19.7,81,58,36,30.25,30.14,5,2,9,0.00
2013-3-28,55.6,39.9,24.3,29.4,24.6,19.9,84,58,34,30.32,30.18,4,1,7,0.00
2013-3-29,59.7,43.5,28.0,29.8,26.3,21.0,76,53,31,30.33,30.20,2,0,3,0.00
2013-3-30,66.9,50.9,36.1,40.9,35.7,29.7,83,59,33,30.26,30.09,2,0,4,0.00
2013-3-31,67.0,55.6,46.9,56.5,49.9,41.5,92,82,66,30.11,29.81,4,1,5,0.58
2013-4-1,71.3,58.4,47.1,51.9,47.1,37.6,94,70,37,29.99,29.82,4,1,9,0.04
2013-4-2,60.0,46.4,31.0,36.5,30.3,25.4,86,57,28,30.17,29.99,4,1,7,0.00
2013-4-3,59.6,46.1,33.1,31.4,27.0,23.6,77,51,27,30.32,30.15,3,1,6,0.00
2013-4-4,46.0,40.7,37.6,36.6,30.9,22.7,91,70,47,30.38,29.96,2,1,4,0.74
2013-4-5,64.4,47.4,37.0,50.0,40.9,34.9,93,80,47,30.03,29.90,3,1,4,0.04
2013-4-6,65.3,49.4,34.4,38.0,34.1,30.8,90,61,31,30.28,30.04,2,0,5,0.00
2013-4-7,72.2,54.4,34.4,46.4,39.7,29.8,87,60,37,30.29,30.11,4,1,9,0.00
2013-4-8,79.6,63.8,47.2,57.6,51.4,43.0,91,67,42,30.18,30.05,4,1,7,0.00
2013-4-9,86.3,69.3,51.7,61.9,55.8,48.8,92,65,40,30.18,30.05,3,1,6,0.00
2013-4-10,87.1,71.8,57.2,64.6,58.7,52.3,89,66,41,30.10,29.93,4,1,9,0.00
2013-4-11,69.6,65.6,62.3,59.1,57.7,56.2,81,76,69,29.96,29.94,0,0,0,0.00
2013-4-12,81.5,71.3,59.1,69.5,62.0,47.3,94,74,50,29.76,29.59,4,2,6,0.39
2013-4-13,74.0,61.0,45.8,46.9,43.4,39.6,83,55,32,30.01,29.76,3,1,9,0.00
2013-4-14,81.5,61.4,39.5,53.0,44.5,36.5,92,60,27,30.11,30.01,2,0,4,0.00
2013-4-15,71.4,63.0,56.9,58.1,56.2,53.2,92,79,61,30.21,30.02,2,0,3,0.07
2013-4-16,76.5,65.5,57.3,62.7,58.2,53.5,91,79,56,30.31,30.19,2,0,3,0.00
2013-4-17,80.7,66.9,53.4,66.5,59.8,51.1,94,79,55,30.24,30.10,2,0,4,0.00
2013-4-18,79.9,69.2,58.3,64.8,60.1,54.9,91,74,53,30.19,30.03,2,0,4,0.00
2013-4-19,81.2,69.3,63.8,69.3,64.2,60.5,94,84,64,30.04,29.70,5,1,9,0.97
2013-4-20,63.4,53.3,42.0,61.6,41.3,35.8,94,66,39,30.28,29.82,4,1,9,0.11
2013-4-21,63.2,49.6,36.8,43.2,38.5,33.9,90,68,45,30.51,30.29,2,1,4,0.00
2013-4-22,62.9,49.6,36.3,43.1,37.6,31.9,85,65,42,30.49,30.28,3,1,6,0.00
2013-4-23,67.3,54.3,46.1,51.4,46.3,42.4,87,75,54,30.30,30.13,2,1,4,0.00
2013-4-24,74.8,58.3,43.4,59.6,50.8,40.7,94,78,55,30.16,29.98,4,1,5,0.00
2013-4-25,70.4,59.5,44.9,54.2,45.0,39.7,89,61,39,30.28,30.02,2,1,4,0.00
2013-4-26,73.2,55.1,36.7,47.8,40.8,34.0,92,64,31,30.44,30.28,3,0,4,0.00
2013-4-27,73.9,60.3,48.7,54.2,48.6,43.5,85,67,39,30.39,30.27,2,0,3,0.00
2013-4-28,57.4,55.0,51.9,54.1,52.0,48.9,94,90,84,30.27,30.09,0,0,1,0.68
2013-4-29,69.5,60.7,54.7,64.2,58.1,53.0,96,91,79,30.09,29.97,1,0,2,0.43
2013-4-30,65.2,59.5,53.8,60.4,56.6,51.2,95,90,82,30.19,30.01,1,0,3,0.00
2013-5-1,60.7,57.6,53.8,57.4,55.1,51.5,93,91,88,30.33,30.17,3,0,6,0.01
2013-5-2,61.2,57.0,52.5,57.4,54.5,50.2,95,91,87,30.34,30.27,1,0,3,0.01
2013-5-3,66.8,56.3,46.8,56.3,51.3,45.2,94,84,63,30.28,30.18,2,1,4,0.00
2013-5-5,57.0,56.4,56.0,54.1,53.8,53.4,92,91,88,30.01,29.99,1,0,2,0.01
2013-5-6,62.7,58.5,54.9,60.9,56.8,52.9,96,94,91,30.01,29.83,2,0,3,1.00
2013-5-7,68.3,57.8,48.3,60.4,52.9,46.9,99,85,57,29.95,29.86,2,0,4,0.00
2013-5-8,69.0,59.5,51.9,61.5,54.8,48.8,93,85,70,30.01,29.93,3,0,3,0.03
2013-5-9,78.7,65.2,52.8,63.4,57.4,50.5,95,78,51,30.07,29.99,2,0,5,0.01
2013-5-10,83.8,68.8,53.0,66.6,59.6,50.5,94,75,47,30.07,29.94,3,0,4,0.02
2013-5-11,80.3,70.4,65.0,67.0,63.0,58.5,93,78,59,29.96,29.79,3,1,6,0.06
2013-5-12,70.8,63.2,51.7,62.9,51.5,39.3,96,69,39,30.03,29.80,3,1,7,0.01
2013-5-13,64.4,53.3,40.0,44.4,39.0,36.4,89,62,37,30.20,30.04,3,1,6,0.00
2013-5-14,69.4,54.3,35.7,47.5,40.9,32.5,91,64,37,30.27,30.08,2,0,4,0.00
2013-5-15,85.7,69.6,49.5,67.8,57.5,43.9,84,67,48,30.08,29.90,2,0,4,0.00
2013-5-16,84.3,71.9,59.3,67.9,62.1,56.1,91,73,47,29.99,29.90,2,0,4,0.00
2013-5-17,87.7,73.4,59.4,68.3,62.5,56.8,92,72,45,30.08,29.98,2,0,3,0.00
2013-5-18,76.9,67.6,58.7,68.0,62.9,56.4,93,85,70,30.15,30.07,2,0,0,0.70
2013-5-19,75.8,66.9,63.2,70.8,64.7,61.2,95,93,83,30.15,30.05,1,0,2,0.45
2013-5-20,74.7,68.1,66.0,72.5,66.6,64.7,96,95,90,30.11,30.03,2,0,2,2.69
2013-5-21,80.6,71.8,66.1,74.7,69.0,64.9,97,91,80,30.05,29.95,1,0,2,0.00
2013-5-22,82.2,72.6,67.7,72.8,68.2,65.6,94,87,68,30.03,29.91,2,0,2,0.00
2013-5-23,77.5,70.9,63.9,71.1,67.3,61.5,95,89,75,29.96,29.81,1,0,2,0.60
2013-5-24,68.3,62.6,49.2,62.5,53.8,42.2,95,75,45,30.20,29.82,5,1,9,0.03
2013-5-25,71.6,56.4,40.4,54.2,43.6,37.1,91,66,35,30.29,30.14,2,0,6,0.00
2013-5-26,72.3,58.4,44.8,55.3,48.0,41.8,92,71,42,30.29,30.18,2,0,4,0.00
2013-5-27,79.5,63.5,46.9,63.1,53.7,44.4,93,73,45,30.29,30.16,1,0,4,0.00
2013-5-28,83.4,71.0,58.4,68.4,62.9,53.9,92,77,58,30.26,30.14,2,0,3,0.00
2013-5-29,84.9,72.4,59.5,68.1,63.6,56.6,92,75,54,30.24,30.16,0,0,0,0.00
2013-5-30,84.3,72.5,59.9,70.1,64.4,57.3,93,77,54,30.28,30.17,0,0,0,0.00
2013-5-31,85.4,74.1,64.0,71.8,66.3,61.5,94,78,54,30.22,30.10,1,0,2,0.00
2013-6-1,86.5,75.4,65.0,70.5,66.6,62.3,93,76,52,30.14,30.02,2,0,3,0.00
2013-6-2,84.5,75.6,67.7,71.7,67.7,63.9,90,77,59,30.05,29.90,2,0,4,0.10
2013-6-3,79.1,71.3,65.0,73.2,68.3,62.9,95,90,74,29.95,29.82,4,0,4,0.49
2013-6-4,74.3,68.2,64.0,66.4,64.1,61.0,95,87,72,30.10,29.94,2,0,3,0.01
2013-6-5,80.6,69.4,60.9,67.6,62.9,58.9,94,81,55,30.15,30.02,1,0,2,0.00
2013-6-6,73.4,69.9,64.5,71.3,66.4,59.7,95,89,73,30.03,29.81,1,0,2,0.35
2013-6-7,70.7,68.9,67.1,69.5,67.7,65.7,96,96,95,29.85,29.53,2,0,4,1.11
2013-6-8,79.8,71.1,63.9,71.6,67.5,62.4,97,89,71,30.10,29.82,3,0,3,0.45
2013-6-9,86.9,74.8,63.4,77.8,69.3,61.6,95,84,66,30.16,30.05,1,0,3,0.00
2013-6-10,79.3,73.2,69.9,76.0,71.0,68.1,96,93,86,30.09,29.89,2,0,5,0.63
2013-6-11,83.1,74.5,68.1,71.5,68.0,64.4,94,81,60,29.95,29.89,2,0,5,0.00
2013-6-12,88.1,75.9,61.9,76.7,69.6,59.9,95,82,62,29.98,29.85,1,0,0,0.00
2013-6-13,91.3,77.4,66.4,79.2,71.2,63.3,95,83,56,29.86,29.59,4,0,5,0.27
2013-6-14,78.1,68.4,58.2,64.8,60.7,56.4,95,78,53,30.01,29.74,3,0,4,0.00
2013-6-15,82.7,69.6,55.7,67.7,61.4,53.4,95,77,52,30.13,30.02,1,0,3,0.00
2013-6-16,84.1,73.4,62.2,71.4,65.8,58.1,90,78,62,30.13,30.00,2,0,3,0.00
2013-6-17,83.1,74.6,68.9,74.7,69.3,64.9,90,84,73,30.04,29.92,1,0,2,0.00
2013-6-18,81.5,72.5,69.0,75.2,69.4,66.8,94,90,80,29.97,29.74,2,0,4,1.21
2013-6-19,79.4,71.1,62.6,71.6,66.6,61.1,96,86,70,30.12,29.88,1,0,2,0.00
2013-6-20,81.8,71.2,61.8,66.9,63.5,59.8,95,78,55,30.24,30.12,1,0,3,0.00
2013-6-21,81.4,69.1,55.6,65.7,59.3,53.1,93,74,44,30.27,30.19,2,0,4,0.00
2013-6-22,81.0,71.1,63.3,72.6,67.6,60.3,94,89,74,30.21,30.11,1,0,3,0.64
2013-6-23,84.4,73.7,64.7,76.1,70.0,63.1,96,89,74,30.22,30.12,1,0,3,0.01
2013-6-24,84.5,75.8,69.1,77.2,71.8,67.0,95,88,75,30.21,30.08,2,0,3,0.00
2013-6-25,86.9,75.6,68.5,77.2,70.9,66.6,95,86,69,30.13,30.00,1,0,2,0.00
2013-6-26,87.5,75.6,68.8,77.4,70.9,64.9,94,86,67,30.04,29.88,3,0,6,1.02
2013-6-27,85.1,74.8,66.9,78.2,71.9,65.1,96,91,74,29.93,29.71,2,0,2,0.23
2013-6-28,87.4,76.1,70.0,77.7,72.1,66.9,96,88,70,29.75,29.57,4,0,4,1.45
2013-6-29,80.3,73.8,68.2,75.6,71.1,66.8,96,91,82,29.72,29.60,1,0,1,0.40
2013-6-30,85.4,73.4,68.9,77.8,70.9,67.2,96,92,75,29.86,29.70,2,0,4,1.63
2013-7-1,79.2,73.1,68.9,74.6,70.9,67.4,96,93,85,29.99,29.84,1,0,2,1.01
2013-7-2,74.6,72.5,70.7,73.1,71.1,69.2,96,95,94,30.18,29.99,1,0,2,0.36
2013-7-3,83.6,75.2,72.1,78.3,73.3,70.8,97,94,83,30.24,30.15,1,0,2,0.77
2013-7-4,83.7,76.7,71.8,77.6,73.4,70.5,97,90,77,30.27,30.17,1,0,2,0.17
2013-7-5,86.4,77.7,70.8,77.7,73.3,69.3,96,87,71,30.28,30.15,1,0,2,0.01
2013-7-6,87.0,77.7,72.3,77.3,73.0,70.2,95,86,71,30.25,30.11,1,0,1,0.01
2013-7-7,84.1,76.9,67.6,78.6,72.9,65.5,95,88,79,30.19,30.06,1,0,3,0.25
2013-7-8,84.8,76.4,71.5,77.2,73.0,69.7,96,90,72,30.17,30.09,1,0,2,0.01
2013-7-9,84.8,76.6,71.3,78.7,73.4,68.8,95,90,80,30.16,30.05,1,0,1,0.00
2013-7-10,73.3,72.9,72.4,70.8,70.3,69.3,93,91,90,30.10,30.06,0,0,1,0.00
2013-7-11,76.7,73.5,71.8,75.2,72.0,70.0,96,95,92,29.97,29.87,1,0,1,0.75
2013-7-12,73.1,71.3,69.4,71.6,69.7,67.6,97,95,92,30.03,29.87,1,0,2,0.09
2013-7-13,76.8,72.4,68.9,74.8,70.8,67.4,96,95,93,30.17,30.01,1,0,3,0.06
2013-7-14,86.2,76.0,70.4,77.9,72.8,69.2,97,90,69,30.30,30.17,1,0,2,0.90
2013-7-15,86.2,76.1,66.4,77.3,72.0,64.9,97,88,69,30.32,30.24,1,0,2,0.01
2013-7-16,91.6,79.0,67.0,79.7,73.5,65.2,96,84,63,30.28,30.18,1,0,3,0.00
2013-7-17,92.5,81.7,73.6,81.0,75.9,72.0,96,84,60,30.22,30.10,1,0,3,0.00
2013-7-18,92.6,80.9,71.7,81.3,75.7,69.9,95,85,60,30.13,30.02,1,0,2,0.00
2013-7-19,88.5,79.9,73.1,79.1,74.8,71.3,95,85,70,30.09,29.97,2,0,3,0.00
2013-7-20,85.1,78.3,73.4,77.6,74.1,70.9,92,87,75,30.02,29.91,2,0,3,0.00
2013-7-21,85.7,77.3,72.9,78.2,73.4,70.6,93,88,76,29.99,29.90,1,0,2,0.01
2013-7-22,84.2,76.5,70.6,77.3,72.7,69.1,95,88,77,29.95,29.82,1,0,2,0.00
2013-7-23,88.4,78.8,72.6,77.0,73.2,70.5,94,84,64,29.84,29.72,1,0,2,0.00
2013-7-24,92.9,79.1,68.2,78.0,72.2,66.3,95,81,55,29.84,29.73,1,0,2,0.00
2013-7-25,77.7,71.5,65.8,71.0,67.6,63.5,93,87,78,30.04,29.82,1,0,2,0.53
2013-7-26,83.0,71.6,61.7,70.7,66.0,59.7,95,84,62,30.11,30.02,1,0,1,0.00
2013-7-27,82.5,71.0,64.9,74.4,67.8,62.8,95,90,76,30.06,29.93,1,0,2,0.87
2013-7-28,83.1,74.1,66.9,75.7,70.4,65.4,96,89,73,30.00,29.92,1,0,3,0.10
2013-7-29,83.5,73.8,65.9,70.4,67.6,62.9,95,82,59,30.16,30.00,1,0,3,0.03
2013-7-30,84.3,72.2,59.0,73.3,65.9,57.0,95,82,59,30.23,30.14,1,0,2,0.00
2013-7-31,80.8,74.4,69.1,74.9,71.1,67.3,95,89,81,30.15,30.00,2,0,3,0.51
2013-8-1,81.4,73.8,70.0,75.6,71.3,67.9,96,92,82,30.01,29.86,1,0,2,0.15
2013-8-2,85.5,74.8,65.6,75.1,69.9,64.1,96,86,63,30.02,29.91,1,0,2,0.12
2013-8-3,86.4,74.2,68.3,79.1,71.3,66.5,96,91,75,30.01,29.94,2,0,2,0.00
2013-8-4,82.8,72.9,66.6,72.5,68.1,63.3,95,86,55,30.03,29.89,2,0,2,0.01
2013-8-5,81.6,71.2,62.8,70.0,66.0,60.7,94,84,64,30.10,30.00,1,0,2,0.00
2013-8-6,79.2,71.3,65.8,72.9,67.4,63.7,94,88,77,30.07,30.00,1,0,2,0.17
2013-8-7,84.0,74.7,67.3,75.0,70.4,64.9,95,87,73,30.10,30.02,1,0,2,0.00
2013-8-8,83.9,76.5,69.1,76.5,72.3,67.3,95,87,74,30.07,30.00,1,0,2,0.00
2013-8-9,87.9,78.0,72.2,79.3,73.7,70.1,95,87,72,30.05,29.97,2,0,3,0.00
2013-8-10,90.7,78.1,72.8,80.1,73.9,70.5,95,88,67,30.09,30.00,4,0,4,0.17
2013-8-11,89.3,77.9,70.8,80.1,73.5,69.3,96,87,68,30.10,30.01,2,0,2,0.00
2013-8-12,91.0,79.2,69.7,77.7,73.4,68.0,96,84,58,30.05,29.92,1,0,2,0.10
2013-8-13,85.5,76.2,70.4,78.9,73.1,68.6,95,90,76,29.97,29.78,2,0,3,0.10
2013-8-14,74.3,70.1,62.0,70.1,66.1,59.6,95,87,74,30.09,29.82,1,0,4,0.00
2013-8-15,61.8,60.2,59.0,59.5,57.9,56.7,92,92,91,30.10,30.09,0,0,0,0.00
2013-8-16,68.6,61.8,56.4,63.9,58.8,54.4,95,90,82,30.19,30.10,0,0,1,0.00
2013-8-17,69.7,64.8,59.1,68.2,63.0,57.1,96,94,92,30.19,30.12,1,0,2,0.20
2013-8-18,76.2,70.5,66.5,71.2,67.7,64.4,96,91,81,30.20,30.12,2,0,3,0.10
2013-8-19,72.3,68.2,65.5,70.8,66.6,63.8,96,95,93,30.20,30.10,0,0,1,0.73
2013-8-20,79.0,71.7,63.9,74.8,69.3,62.7,97,92,82,30.20,30.11,0,0,1,0.00
2013-8-21,84.3,73.3,69.0,78.2,71.2,67.5,96,93,80,30.22,30.09,1,0,2,0.37
2013-8-22,86.1,75.7,68.7,77.9,72.2,67.2,97,89,72,30.15,29.99,1,0,2,0.01
2013-8-23,85.1,74.3,66.5,76.9,70.5,64.2,96,88,72,30.08,29.93,2,0,4,0.00
2013-8-24,81.0,70.7,62.7,66.3,63.5,60.0,92,79,56,30.31,30.08,2,0,3,0.00
2013-8-25,78.0,66.7,56.8,66.8,60.6,54.8,95,82,59,30.40,30.29,1,0,4,0.00
2013-8-26,81.9,66.1,52.1,67.9,59.1,49.8,95,80,47,30.34,30.12,1,0,1,0.00
2013-8-27,87.1,72.5,59.5,77.0,67.5,57.5,94,85,63,30.13,29.97,1,0,2,0.00
2013-8-28,80.6,73.9,66.1,77.1,71.6,64.3,95,93,87,29.99,29.87,0,0,0,0.00
2013-8-29,84.8,76.8,70.9,76.5,72.4,68.1,96,87,72,30.01,29.85,2,0,5,0.00
2013-8-30,87.0,74.3,66.3,73.0,68.2,64.2,95,82,58,30.07,29.94,1,0,3,0.00
2013-8-31,85.7,74.5,64.6,76.9,70.2,62.5,95,87,71,29.97,29.86,1,0,4,0.00
2013-9-1,88.4,75.5,69.3,78.3,71.7,67.5,96,89,69,29.90,29.77,2,0,4,1.02
2013-9-2,85.0,75.2,68.1,78.1,72.0,66.6,96,90,74,29.89,29.79,1,0,1,0.01
2013-9-3,87.4,76.3,68.3,78.2,72.1,66.8,96,87,66,29.94,29.80,1,0,2,0.01
2013-9-4,83.6,71.9,63.4,73.3,67.5,61.3,95,86,68,30.09,29.94,1,0,2,0.00
2013-9-5,85.9,71.9,61.5,70.1,64.3,59.8,95,79,47,30.11,30.03,1,0,2,0.00
2013-9-6,81.4,69.5,59.8,67.2,61.9,56.7,92,78,56,30.18,30.08,2,0,4,0.00
2013-9-7,81.6,67.5,55.4,69.2,62.0,53.4,95,83,62,30.15,29.99,1,0,2,0.00
2013-9-8,86.0,71.8,60.0,71.1,64.3,58.3,95,80,48,30.00,29.92,1,0,2,0.00
2013-9-9,86.6,73.3,62.4,74.9,67.7,60.3,95,84,60,30.15,30.00,1,0,3,0.00
2013-9-10,88.9,74.9,64.1,75.5,69.0,62.3,95,83,60,30.23,30.14,1,0,2,0.00
2013-9-11,89.0,74.5,64.0,76.6,68.7,61.9,95,83,63,30.21,30.07,1,0,2,0.00
2013-9-12,88.2,75.9,66.8,77.2,70.3,64.6,94,84,64,30.07,29.80,1,0,0,0.00
2013-9-13,83.4,71.9,63.5,68.9,65.0,54.2,95,81,51,29.90,29.76,2,0,6,0.00
2013-9-14,73.0,63.8,55.5,59.2,53.6,50.1,89,71,52,30.14,29.90,3,0,7,0.00
2013-9-15,78.9,63.1,49.0,64.5,56.6,46.8,94,81,55,30.25,30.12,2,0,3,0.00
2013-9-16,83.5,71.4,61.1,73.1,64.4,58.2,95,80,54,30.19,30.04,2,0,3,0.02
2013-9-17,75.6,65.1,55.2,60.1,55.9,51.4,89,74,50,30.32,30.20,2,0,5,0.00
2013-9-18,72.1,59.0,47.4,57.2,51.0,45.2,93,77,47,30.33,30.18,2,0,4,0.00
2013-9-19,74.3,62.7,50.9,65.0,57.5,48.1,93,84,65,30.21,30.09,1,0,1,0.00
2013-9-20,67.9,65.4,63.0,65.9,63.4,61.1,95,93,91,30.10,29.98,0,0,1,0.22
2013-9-21,76.2,67.6,63.9,72.3,65.7,62.4,96,94,87,29.97,29.73,2,0,2,0.32
2013-9-22,73.1,65.1,56.3,64.9,60.6,53.7,95,86,65,29.90,29.71,3,0,5,0.34
2013-9-23,70.8,59.4,51.0,59.9,54.0,49.0,94,83,62,30.08,29.91,2,0,5,0.00
2013-9-24,73.5,60.5,50.7,63.1,56.0,48.2,94,86,66,30.11,29.96,0,0,0,0.00
2013-9-25,69.7,60.1,48.6,64.0,56.8,46.7,95,89,79,29.98,29.88,0,0,0,0.00
2013-9-26,74.8,63.8,55.1,63.1,57.5,52.4,96,82,53,30.05,29.89,2,0,4,0.00
2013-9-27,71.7,59.7,49.8,61.3,54.4,47.9,96,84,63,30.20,30.05,1,0,3,0.00
2013-9-28,68.5,57.9,48.3,57.9,52.7,46.4,95,84,65,30.28,30.18,2,0,6,0.00
2013-9-29,70.8,57.9,47.0,58.9,52.2,45.1,95,82,59,30.19,30.05,2,0,4,0.00
2013-9-30,73.3,58.5,46.9,63.0,53.4,44.7,95,84,61,30.12,30.01,1,0,3,0.00
2013-10-1,80.4,62.5,48.6,67.5,56.7,46.7,95,83,54,30.14,30.02,1,0,2,0.00
2013-10-2,83.7,65.8,52.6,67.6,58.7,50.6,95,80,51,30.14,30.05,1,0,3,0.00
2013-10-3,82.6,67.2,55.7,69.3,61.5,53.5,95,83,59,30.13,30.06,1,0,2,0.00
2013-10-4,85.1,69.0,57.3,70.9,63.3,55.3,95,83,56,30.14,30.05,1,0,2,0.00
2013-10-5,87.7,69.9,57.5,73.6,63.9,55.7,95,83,56,30.12,30.02,1,0,2,0.00
2013-10-6,82.5,70.5,59.0,72.2,65.8,57.0,95,86,68,30.07,29.93,2,0,3,0.00
2013-10-7,71.6,69.0,61.9,69.5,67.1,58.3,96,94,88,30.00,29.85,1,0,3,1.92
2013-10-8,61.8,58.8,56.6,57.9,51.0,47.9,87,75,68,30.22,30.00,2,1,5,0.00
2013-10-9,56.7,56.3,55.9,49.9,49.6,49.1,79,78,76,30.19,30.16,1,1,4,0.00
2013-10-10,59.7,56.1,52.6,58.3,54.3,50.5,95,94,92,30.10,29.95,2,1,0,0.95
2013-10-11,67.6,62.3,58.8,63.3,59.5,56.5,94,91,83,29.98,29.92,1,0,0,0.00
2013-10-12,67.0,62.6,57.4,64.3,60.6,55.8,95,93,88,30.10,29.96,1,0,0,0.02
2013-10-13,65.9,62.6,60.5,63.5,60.7,59.0,95,94,91,30.22,30.09,2,0,0,0.07
2013-10-14,63.2,60.6,56.5,61.1,58.9,54.5,96,94,91,30.25,30.19,1,0,3,0.09
2013-10-15,71.2,60.8,50.4,62.4,56.8,49.0,96,87,71,30.22,30.07,2,0,7,0.00
2013-10-16,69.1,63.5,59.5,63.4,60.6,57.2,94,90,81,30.08,29.96,1,0,1,0.00
2013-10-17,72.1,64.8,59.0,66.2,61.9,57.3,95,90,80,29.98,29.84,2,0,5,0.01
2013-10-18,67.4,60.6,52.4,63.5,55.0,50.1,95,83,60,30.05,29.89,1,0,5,0.00
2013-10-19,67.9,60.2,55.8,63.9,57.7,53.3,94,91,86,29.99,29.82,1,0,3,0.02
2013-10-20,62.4,50.9,41.8,53.9,45.6,38.7,95,83,55,30.14,29.91,1,0,3,0.00
2013-10-21,65.6,49.3,35.1,53.7,43.7,32.9,95,82,56,30.19,30.03,1,0,2,0.00
2013-10-22,64.7,55.7,49.2,59.7,53.0,46.6,94,91,81,30.03,29.82,1,0,1,0.00
2013-10-23,64.4,56.8,45.0,56.6,47.9,34.5,95,75,45,30.02,29.70,4,1,7,0.00
2013-10-24,56.6,44.1,32.3,40.2,35.3,29.1,90,73,47,30.20,30.02,3,0,5,0.00
2013-10-25,53.3,43.5,32.6,38.1,33.7,28.6,89,70,44,30.38,30.20,3,1,5,0.00
2013-10-26,56.8,40.9,26.9,40.5,32.4,24.1,92,74,45,30.38,30.09,3,0,4,0.00
2013-10-27,66.6,52.6,37.9,48.7,42.1,34.9,92,70,43,30.15,30.06,2,0,5,0.00
2013-10-28,65.6,51.7,40.2,55.5,47.2,37.4,93,85,67,30.28,30.14,0,0,1,0.00
2013-10-29,70.3,57.0,48.8,59.6,52.4,46.9,94,85,67,30.35,30.26,1,0,1,0.00
2013-10-30,73.1,57.8,47.6,62.4,53.6,45.4,95,86,65,30.30,30.17,2,0,3,0.00
2013-10-31,72.0,62.4,53.9,62.4,57.2,51.3,95,84,69,30.21,29.93,2,0,6,0.00
2013-11-1,69.8,66.6,61.0,66.3,63.7,59.6,95,91,84,29.92,29.67,3,1,6,0.57
2013-11-2,68.1,58.6,46.1,59.5,52.3,42.7,96,82,46,29.95,29.70,2,0,6,0.01
2013-11-3,60.9,47.0,36.9,44.4,39.2,33.7,94,77,46,30.39,29.95,3,0,6,0.01
2013-11-4,54.1,41.6,32.2,40.0,34.1,29.6,91,76,49,30.58,30.39,2,0,5,0.00
2013-11-5,56.1,45.5,33.5,47.5,40.4,30.0,91,83,68,30.58,30.45,2,0,3,0.00
2013-11-6,69.2,53.6,40.2,57.1,48.6,38.1,95,84,64,30.45,30.13,1,0,3,0.00
2013-11-7,66.8,56.8,44.6,61.2,50.5,33.5,95,80,57,30.13,29.94,3,1,5,0.00
2013-11-8,55.2,42.5,29.8,34.2,30.3,25.8,86,64,39,30.35,30.12,4,1,6,0.00
2013-11-9,57.7,41.0,26.8,38.0,31.2,24.0,92,71,40,30.40,30.22,2,0,4,0.00
2013-11-10,70.1,49.0,32.6,45.8,36.5,29.7,92,66,34,30.26,30.08,3,0,8,0.00
2013-11-11,58.1,43.2,29.3,35.3,30.8,24.5,85,64,39,30.37,30.16,1,0,4,0.00
2013-11-12,58.2,38.6,30.0,43.4,32.0,23.4,92,79,51,30.46,30.07,3,0,4,0.02
2013-11-13,43.0,31.9,22.9,23.9,20.2,17.5,82,64,41,30.57,30.45,3,0,2,0.01
2013-11-14,56.1,32.1,20.1,31.6,22.0,16.7,89,70,34,30.50,30.36,2,0,3,0.00
2013-11-15,59.5,42.0,24.9,43.7,34.3,21.1,88,75,52,30.39,30.24,1,0,3,0.00
2013-11-16,63.2,53.1,45.0,57.3,49.8,41.4,93,88,81,30.29,30.22,2,0,3,0.01
2013-11-17,66.5,58.8,50.6,63.1,56.4,48.7,95,92,84,30.24,29.90,1,0,2,0.05
2013-11-18,73.7,63.6,50.0,65.7,53.8,31.9,95,73,43,29.98,29.81,3,1,6,0.05
2013-11-19,55.5,45.6,35.1,32.3,30.3,28.4,79,56,41,30.33,29.98,3,1,6,0.00
2013-11-20,52.2,42.1,34.5,35.3,31.0,26.2,82,65,50,30.47,30.33,1,0,3,0.00
2013-11-21,60.1,47.9,38.3,48.4,41.1,33.9,85,78,65,30.52,30.41,2,0,3,0.00
2013-11-22,68.3,56.6,45.4,60.1,51.7,42.3,91,84,75,30.42,30.09,2,0,5,0.01
2013-11-23,59.9,53.8,41.1,57.6,42.9,22.5,93,69,41,30.19,30.05,2,1,5,0.00
2013-11-24,40.9,31.3,21.8,24.1,11.3,5.8,64,44,30,30.58,30.19,4,1,10,0.00
2013-11-25,41.4,28.4,16.1,23.4,14.4,10.4,80,58,32,30.63,30.41,2,0,4,0.00
2013-11-26,62.9,40.8,34.0,61.4,32.9,18.9,95,75,48,30.41,29.62,2,0,4,1.15
2013-11-27,45.4,38.1,27.7,44.1,34.4,18.4,95,87,67,30.19,29.53,3,1,5,0.62
2013-11-28,41.1,30.0,21.7,25.8,20.1,15.9,84,67,48,30.52,30.20,2,0,4,0.00
2013-11-29,49.2,32.3,20.9,31.0,23.9,17.9,90,73,46,30.67,30.51,2,0,4,0.00
2013-11-30,46.3,33.3,23.3,33.5,26.2,19.5,87,76,60,30.68,30.41,2,0,4,0.00
2013-12-1,56.0,37.4,23.9,38.3,29.8,21.1,92,76,46,30.41,30.06,2,0,3,0.00
2013-12-2,59.5,42.9,31.3,46.9,36.7,27.8,92,80,56,30.06,29.84,1,0,2,0.00
2013-12-3,54.2,42.9,29.4,47.1,38.9,26.8,93,86,73,30.02,29.89,1,0,1,0.00
2013-12-4,61.3,53.9,48.3,57.1,51.3,45.2,94,91,85,30.11,30.00,1,0,2,0.01
2013-12-5,64.9,60.5,52.9,62.8,58.9,51.2,96,95,92,30.13,30.04,2,0,4,0.05
2013-12-6,75.8,68.5,63.9,65.8,63.2,61.2,95,84,68,30.07,29.97,5,1,10,0.02
2013-12-7,68.0,48.3,41.5,64.3,43.7,33.8,92,84,74,30.47,29.99,3,1,10,0.20
2013-12-8,41.4,34.8,32.4,34.3,30.2,28.2,93,84,68,30.49,30.31,1,0,3,0.15
2013-12-9,43.3,38.8,33.0,42.0,37.3,31.2,95,94,93,30.32,30.09,1,0,1,0.25
2013-12-10,47.0,41.2,27.0,43.3,38.5,24.5,96,90,72,30.35,29.94,2,0,5,0.39
2013-12-11,46.4,31.7,20.8,32.8,25.7,18.3,93,80,52,30.48,30.32,2,0,3,0.01
2013-12-12,42.1,31.3,23.0,25.8,22.2,18.3,90,71,42,30.46,30.30,3,0,5,0.00
2013-12-13,49.2,32.0,19.4,29.1,22.5,16.0,92,71,38,30.42,30.30,3,0,4,0.00
2013-12-14,44.5,38.3,32.9,39.9,34.9,27.7,93,88,71,30.33,29.81,1,0,5,0.76
2013-12-15,51.9,40.3,28.1,43.2,35.0,24.2,95,82,58,30.10,29.73,3,0,5,0.04
2013-12-16,53.4,36.6,25.4,38.1,30.0,22.9,91,78,52,30.20,30.09,2,0,3,0.00
2013-12-17,59.8,43.6,27.7,43.4,34.2,25.2,92,72,48,30.14,29.91,4,1,5,0.00
2013-12-18,48.2,37.1,26.2,34.0,22.8,19.2,78,58,35,30.32,30.06,3,1,11,0.00
2013-12-19,60.4,40.7,23.6,33.2,26.2,19.4,87,61,30,30.35,30.24,3,0,5,0.00
2013-12-20,64.7,49.8,35.9,53.9,41.2,30.0,87,73,56,30.26,30.13,3,0,4,0.00
2013-12-21,72.1,58.5,44.4,64.5,53.8,42.0,93,85,69,30.16,30.04,3,1,5,0.00
2013-12-22,75.9,69.1,62.7,67.7,64.0,60.1,94,84,69,30.09,30.01,4,2,6,0.19
2013-12-23,64.7,58.4,44.5,63.2,56.4,38.1,96,93,77,30.17,29.99,2,1,4,1.18
2013-12-24,44.9,39.0,28.0,37.5,27.5,13.9,77,64,49,30.47,30.14,4,1,6,0.01
2013-12-25,37.3,27.4,20.6,16.9,13.6,10.8,78,57,39,30.58,30.43,1,0,3,0.00
2013-12-26,50.9,33.6,20.5,31.1,24.9,14.7,92,72,42,30.43,30.28,2,0,3,0.03
2013-12-27,51.1,32.6,21.3,31.3,23.1,18.0,90,71,38,30.50,30.40,1,0,3,0.00
2013-12-28,57.9,37.8,21.3,37.1,28.4,18.0,89,72,38,30.44,30.19,1,0,2,0.00
2013-12-29,52.9,44.7,36.8,49.8,42.1,35.0,95,91,78,30.19,29.74,3,0,4,1.53
2013-12-30,51.7,40.9,30.4,45.2,37.0,28.6,95,86,72,30.16,29.95,2,0,2,0.00
2013-12-31,49.0,38.4,27.5,37.0,30.5,23.5,91,75,44,30.38,30.14,3,0,4,0.01
2014-1-1,49.2,35.2,26.7,32.9,27.4,23.4,91,75,47,30.45,30.18,1,0,2,0.00
2014-1-2,46.0,39.7,31.9,42.3,36.0,27.3,93,87,77,30.19,29.60,2,0,4,0.29